Time;durP1;ratioP1;P1;durP2;ratioP2;P2;SDS_P1;SDS_P2;PMS_P1;PMS_P2;Temp;Humidity;BMP_temperature;BMP_pressure;BME280_temperature;BME280_humidity;BME280_pressure;Samples;Min_cycle;Max_cycle;Signal;HPM_P1;HPM_P2
2022/05/30 00:02:24;;;;;;;1.00;1.00;;;;;;;;;;5065921;28;20208;-57
2022/05/30 00:05:12;;;;;;;1.60;1.40;;;;;;;;;;5071307;28;20328;-58
2022/05/30 00:07:59;;;;;;;1.10;1.00;;;;;;;;;;5070166;28;20290;-57
2022/05/30 00:10:46;;;;;;;1.00;1.00;;;;;;;;;;5071335;28;20322;-58
2022/05/30 00:13:33;;;;;;;1.40;1.10;;;;;;;;;;5070864;28;20741;-59
2022/05/30 00:16:24;;;;;;;1.40;1.30;;;;;;;;;;5067550;28;20245;-57
2022/05/30 00:19:10;;;;;;;1.30;1.20;;;;;;;;;;5068699;28;20238;-58
2022/05/30 00:21:57;;;;;;;1.20;1.10;;;;;;;;;;5066958;28;20702;-58
2022/05/30 00:24:44;;;;;;;1.13;1.13;;;;;;;;;;5066111;28;20199;-57
2022/05/30 00:27:32;;;;;;;1.47;1.37;;;;;;;;;;5070159;28;20274;-57
2022/05/30 00:30:19;;;;;;;1.10;1.00;;;;;;;;;;5070764;28;20708;-57
2022/05/30 00:33:07;;;;;;;1.40;1.30;;;;;;;;;;5068908;28;20250;-57
2022/05/30 00:35:54;;;;;;;1.37;1.23;;;;;;;;;;5068120;28;20283;-57
2022/05/30 00:38:41;;;;;;;1.50;1.40;;;;;;;;;;5071164;28;20224;-57
2022/05/30 00:41:28;;;;;;;1.40;1.30;;;;;;;;;;5070017;28;20221;-58
2022/05/30 00:44:15;;;;;;;1.37;1.10;;;;;;;;;;5071951;28;20210;-57
2022/05/30 00:47:02;;;;;;;1.30;1.20;;;;;;;;;;5070994;28;20293;-58
2022/05/30 00:49:50;;;;;;;1.20;1.10;;;;;;;;;;5071974;28;20290;-57
2022/05/30 00:52:40;;;;;;;0.80;0.80;;;;;;;;;;5071737;28;20729;-57
2022/05/30 00:55:27;;;;;;;1.40;1.30;;;;;;;;;;5068441;28;20679;-57
2022/05/30 00:58:17;;;;;;;1.27;1.10;;;;;;;;;;5064032;28;20214;-61
2022/05/30 01:01:05;;;;;;;0.97;0.97;;;;;;;;;;5070630;28;20285;-63
2022/05/30 01:07:00;;;;;;;1.30;1.30;;;;;;;;;;5066749;28;20673;-61
2022/05/30 01:09:50;;;;;;;1.03;1.03;;;;;;;;;;5071341;28;20234;-61
2022/05/30 01:12:40;;;;;;;1.43;1.30;;;;;;;;;;5067233;28;20729;-61
2022/05/30 01:15:29;;;;;;;1.40;0.93;;;;;;;;;;5068689;28;20247;-61
2022/05/30 01:18:20;;;;;;;0.97;0.97;;;;;;;;;;5069868;28;20255;-61
2022/05/30 01:21:31;;;;;;;1.20;1.20;;;;;;;;;;5067885;28;20987;-62
2022/05/30 01:24:32;;;;;;;1.60;1.50;;;;;;;;;;5068010;28;20241;-61
2022/05/30 01:27:32;;;;;;;1.00;1.00;;;;;;;;;;5067824;28;20274;-65
2022/05/30 01:30:21;;;;;;;0.90;0.90;;;;;;;;;;5068468;28;20265;-61
2022/05/30 01:33:08;;;;;;;1.20;1.10;;;;;;;;;;5068231;28;20235;-62
2022/05/30 01:35:55;;;;;;;1.00;0.90;;;;;;;;;;5065806;28;20282;-62
2022/05/30 01:38:42;;;;;;;1.37;1.00;;;;;;;;;;5068084;28;20289;-62
2022/05/30 01:41:29;;;;;;;1.43;1.33;;;;;;;;;;5068965;28;20564;-61
2022/05/30 01:44:16;;;;;;;1.47;1.10;;;;;;;;;;5067936;28;20202;-61
2022/05/30 01:47:05;;;;;;;1.27;1.20;;;;;;;;;;5069586;28;20207;-61
2022/05/30 01:49:52;;;;;;;1.17;1.13;;;;;;;;;;5068429;28;20256;-61
2022/05/30 01:52:40;;;;;;;1.77;1.10;;;;;;;;;;5069184;28;20213;-62
2022/05/30 01:55:26;;;;;;;1.30;1.20;;;;;;;;;;5070964;28;20330;-61
2022/05/30 01:58:13;;;;;;;1.43;1.10;;;;;;;;;;5068617;28;20302;-61
2022/05/30 02:01:03;;;;;;;1.10;1.00;;;;;;;;;;5066149;28;20328;-61
2022/05/30 02:03:52;;;;;;;1.53;1.00;;;;;;;;;;5068560;28;20234;-61
2022/05/30 02:06:39;;;;;;;1.30;1.20;;;;;;;;;;5067661;28;20225;-62
2022/05/30 02:09:26;;;;;;;1.10;1.10;;;;;;;;;;5069964;28;20309;-61
2022/05/30 02:12:13;;;;;;;1.90;1.20;;;;;;;;;;5069609;28;20316;-62
2022/05/30 02:15:00;;;;;;;1.20;1.10;;;;;;;;;;5070475;28;20301;-61
2022/05/30 02:17:46;;;;;;;1.20;1.17;;;;;;;;;;5070343;28;20239;-62
2022/05/30 02:20:34;;;;;;;1.60;1.10;;;;;;;;;;5069212;28;20702;-61
2022/05/30 02:23:21;;;;;;;1.17;1.07;;;;;;;;;;5067789;28;20792;-61
2022/05/30 02:26:09;;;;;;;1.40;1.30;;;;;;;;;;5066234;28;20694;-62
2022/05/30 02:28:56;;;;;;;1.00;1.00;;;;;;;;;;5066606;28;20215;-61
2022/05/30 02:31:43;;;;;;;1.43;1.33;;;;;;;;;;5074530;28;20215;-61
2022/05/30 02:37:36;;;;;;;1.10;1.00;;;;;;;;;;5066678;28;20215;-62
2022/05/30 02:40:23;;;;;;;1.23;1.13;;;;;;;;;;5071174;28;20307;-61
2022/05/30 02:43:10;;;;;;;1.40;1.30;;;;;;;;;;5072023;28;20199;-62
2022/05/30 02:45:57;;;;;;;0.93;0.90;;;;;;;;;;5071683;28;20243;-61
2022/05/30 02:48:44;;;;;;;1.50;1.20;;;;;;;;;;5067002;28;20671;-61
2022/05/30 02:51:31;;;;;;;1.13;1.03;;;;;;;;;;5072028;28;20232;-62
2022/05/30 02:54:19;;;;;;;1.13;1.10;;;;;;;;;;5071070;28;20267;-61
2022/05/30 02:57:07;;;;;;;1.20;0.83;;;;;;;;;;5071584;28;20244;-61
2022/05/30 02:59:54;;;;;;;1.03;1.03;;;;;;;;;;5071670;28;20556;-61
2022/05/30 03:02:41;;;;;;;1.37;1.03;;;;;;;;;;5071260;28;20223;-61
2022/05/30 03:05:30;;;;;;;0.93;0.93;;;;;;;;;;5070873;28;20293;-62
2022/05/30 03:08:17;;;;;;;1.20;1.10;;;;;;;;;;5072209;28;20210;-61
2022/05/30 03:11:05;;;;;;;1.00;1.00;;;;;;;;;;5066021;28;20246;-62
2022/05/30 03:13:53;;;;;;;1.20;1.20;;;;;;;;;;5069380;28;20218;-62
2022/05/30 03:16:40;;;;;;;1.00;1.00;;;;;;;;;;5069039;28;20200;-61
2022/05/30 03:19:27;;;;;;;1.73;1.20;;;;;;;;;;5071328;28;20288;-61
2022/05/30 03:22:13;;;;;;;1.13;1.03;;;;;;;;;;5071808;28;20737;-61
2022/05/30 03:25:00;;;;;;;1.10;1.00;;;;;;;;;;5072410;28;20304;-61
2022/05/30 03:27:49;;;;;;;1.10;1.10;;;;;;;;;;5069644;28;20284;-62
2022/05/30 03:30:37;;;;;;;1.10;1.10;;;;;;;;;;5071353;28;20259;-61
2022/05/30 03:33:24;;;;;;;0.87;0.83;;;;;;;;;;5069819;28;20234;-62
2022/05/30 03:36:13;;;;;;;1.00;1.00;;;;;;;;;;5070252;28;20729;-62
2022/05/30 03:39:00;;;;;;;1.10;1.00;;;;;;;;;;5069888;28;20245;-61
2022/05/30 03:41:47;;;;;;;1.50;1.10;;;;;;;;;;5067344;28;20221;-61
2022/05/30 03:44:36;;;;;;;1.10;1.10;;;;;;;;;;5071628;28;20651;-61
2022/05/30 03:47:23;;;;;;;1.37;1.07;;;;;;;;;;5067591;28;20559;-62
2022/05/30 03:50:13;;;;;;;1.03;1.00;;;;;;;;;;5067108;28;20235;-61
2022/05/30 03:53:04;;;;;;;1.03;0.97;;;;;;;;;;5067437;28;20310;-61
2022/05/30 03:55:51;;;;;;;4.67;1.00;;;;;;;;;;5071298;28;20208;-61
2022/05/30 03:58:39;;;;;;;0.97;0.97;;;;;;;;;;5071444;28;20251;-61
2022/05/30 04:01:27;;;;;;;1.10;1.10;;;;;;;;;;5069220;28;20235;-62
2022/05/30 04:04:14;;;;;;;1.30;1.17;;;;;;;;;;5070206;28;20295;-61
2022/05/30 04:07:01;;;;;;;1.87;1.30;;;;;;;;;;5067149;28;20746;-61
2022/05/30 04:09:48;;;;;;;2.33;1.50;;;;;;;;;;5069435;28;20720;-62
2022/05/30 04:12:36;;;;;;;1.33;1.10;;;;;;;;;;5069524;28;20290;-61
2022/05/30 04:15:23;;;;;;;1.37;1.27;;;;;;;;;;5070932;28;20659;-62
2022/05/30 04:18:12;;;;;;;1.23;1.17;;;;;;;;;;5069468;28;20253;-62
2022/05/30 04:20:59;;;;;;;1.20;1.10;;;;;;;;;;5070447;28;20207;-60
2022/05/30 04:23:46;;;;;;;1.33;1.20;;;;;;;;;;5068357;28;20737;-61
2022/05/30 04:26:33;;;;;;;1.33;1.23;;;;;;;;;;5068339;28;20231;-62
2022/05/30 04:29:20;;;;;;;1.40;0.97;;;;;;;;;;5069719;28;20273;-61
2022/05/30 04:32:08;;;;;;;1.10;1.10;;;;;;;;;;5069103;28;20286;-61
2022/05/30 04:34:56;;;;;;;1.10;1.10;;;;;;;;;;5066727;28;20681;-61
2022/05/30 04:37:45;;;;;;;1.30;1.00;;;;;;;;;;5069204;28;20800;-61
2022/05/30 04:40:32;;;;;;;1.00;0.90;;;;;;;;;;5069323;28;20211;-61
2022/05/30 04:43:19;;;;;;;1.10;1.00;;;;;;;;;;5069995;28;20282;-62
2022/05/30 04:46:10;;;;;;;1.30;1.20;;;;;;;;;;5069737;28;20213;-61
2022/05/30 04:48:57;;;;;;;1.30;1.20;;;;;;;;;;5067453;28;20269;-61
2022/05/30 04:51:45;;;;;;;1.10;1.10;;;;;;;;;;5068503;28;20353;-61
2022/05/30 04:54:32;;;;;;;1.73;1.03;;;;;;;;;;5069467;28;20315;-61
2022/05/30 04:57:19;;;;;;;1.27;1.27;;;;;;;;;;5068580;28;20209;-61
2022/05/30 05:00:07;;;;;;;1.03;1.00;;;;;;;;;;5070400;28;20332;-61
2022/05/30 05:02:54;;;;;;;1.37;1.27;;;;;;;;;;5069359;28;20255;-61
2022/05/30 05:05:41;;;;;;;1.10;1.00;;;;;;;;;;5068884;28;20283;-61
2022/05/30 05:08:38;;;;;;;1.07;0.97;;;;;;;;;;5069820;28;20214;-62
2022/05/30 05:11:27;;;;;;;0.93;0.93;;;;;;;;;;5068672;28;20584;-61
2022/05/30 05:14:15;;;;;;;0.90;0.90;;;;;;;;;;5068625;28;20304;-62
2022/05/30 05:17:03;;;;;;;0.90;0.90;;;;;;;;;;5067716;28;20215;-61
2022/05/30 05:19:50;;;;;;;0.90;0.90;;;;;;;;;;5069392;28;20277;-62
2022/05/30 05:22:37;;;;;;;1.17;1.10;;;;;;;;;;5067300;28;20340;-62
2022/05/30 05:25:25;;;;;;;1.00;1.00;;;;;;;;;;5068924;28;20685;-62
2022/05/30 05:28:12;;;;;;;1.10;1.00;;;;;;;;;;5068831;28;20369;-62
2022/05/30 05:30:59;;;;;;;1.10;1.10;;;;;;;;;;5065374;28;20748;-61
2022/05/30 05:33:46;;;;;;;1.03;1.03;;;;;;;;;;5071300;28;20822;-61
2022/05/30 05:36:35;;;;;;;1.33;1.23;;;;;;;;;;5064803;28;20259;-62
2022/05/30 05:39:22;;;;;;;1.20;1.00;;;;;;;;;;5065714;28;20739;-61
2022/05/30 05:42:12;;;;;;;1.07;1.07;;;;;;;;;;5068827;28;20689;-61
2022/05/30 05:44:59;;;;;;;0.97;0.97;;;;;;;;;;5068223;28;20212;-61
2022/05/30 05:47:47;;;;;;;1.30;1.20;;;;;;;;;;5068134;28;20281;-64
2022/05/30 05:50:34;;;;;;;1.10;1.00;;;;;;;;;;5071207;28;20235;-64
2022/05/30 05:53:21;;;;;;;1.20;1.10;;;;;;;;;;5066187;28;20289;-61
2022/05/30 05:56:12;;;;;;;0.80;0.80;;;;;;;;;;5068590;28;20232;-61
2022/05/30 05:59:00;;;;;;;1.40;1.30;;;;;;;;;;5068482;28;20295;-61
2022/05/30 06:01:48;;;;;;;1.50;1.40;;;;;;;;;;5070713;28;20209;-62
2022/05/30 06:04:34;;;;;;;1.07;1.00;;;;;;;;;;5070450;28;20202;-62
2022/05/30 06:07:21;;;;;;;1.20;1.10;;;;;;;;;;5069210;28;20681;-61
2022/05/30 06:10:11;;;;;;;1.67;1.30;;;;;;;;;;5072526;28;20253;-61
2022/05/30 06:12:58;;;;;;;1.00;1.00;;;;;;;;;;5071646;28;20238;-63
2022/05/30 06:15:46;;;;;;;1.00;1.00;;;;;;;;;;5072476;28;20245;-61
2022/05/30 06:18:33;;;;;;;1.07;1.07;;;;;;;;;;5071499;28;20349;-61
2022/05/30 06:21:21;;;;;;;1.30;1.20;;;;;;;;;;5072431;28;20332;-61
2022/05/30 06:24:10;;;;;;;0.97;0.97;;;;;;;;;;5052251;28;20693;-61
2022/05/30 06:26:57;;;;;;;1.43;1.33;;;;;;;;;;5050736;28;20208;-62
2022/05/30 06:29:44;;;;;;;1.10;1.00;;;;;;;;;;5050174;28;20280;-61
2022/05/30 06:32:32;;;;;;;1.10;1.10;;;;;;;;;;5049466;28;20232;-62
2022/05/30 06:35:19;;;;;;;1.10;1.10;;;;;;;;;;5050745;28;20345;-61
2022/05/30 06:38:06;;;;;;;1.00;1.00;;;;;;;;;;5050937;28;20698;-62
2022/05/30 06:40:52;;;;;;;1.10;0.98;;;;;;;;;;5051447;28;20271;-61
2022/05/30 06:43:40;;;;;;;1.15;1.00;;;;;;;;;;5050868;28;20288;-62
2022/05/30 06:46:27;;;;;;;1.25;1.15;;;;;;;;;;5050913;28;20687;-62
2022/05/30 06:49:16;;;;;;;1.10;1.00;;;;;;;;;;5047715;28;20690;-62
2022/05/30 06:52:04;;;;;;;0.70;0.70;;;;;;;;;;5049702;28;20234;-61
2022/05/30 06:54:51;;;;;;;1.35;0.85;;;;;;;;;;5052543;28;20298;-60
2022/05/30 07:00:45;;;;;;;1.08;1.00;;;;;;;;;;5049429;28;20227;-59
2022/05/30 07:03:32;;;;;;;1.00;1.00;;;;;;;;;;5048098;28;20196;-62
2022/05/30 07:06:23;;;;;;;1.17;1.05;;;;;;;;;;5050414;28;20216;-61
2022/05/30 07:09:10;;;;;;;1.00;1.00;;;;;;;;;;5049760;28;20207;-62
2022/05/30 07:11:56;;;;;;;0.90;0.82;;;;;;;;;;5048727;28;20308;-61
2022/05/30 07:14:43;;;;;;;0.73;0.73;;;;;;;;;;5051661;28;20273;-62
2022/05/30 07:17:30;;;;;;;1.50;1.10;;;;;;;;;;5046443;28;20286;-61
2022/05/30 07:20:18;;;;;;;0.80;0.80;;;;;;;;;;5050231;28;20212;-61
2022/05/30 07:23:06;;;;;;;0.85;0.85;;;;;;;;;;5060934;28;20245;-61
2022/05/30 07:25:57;;;;;;;1.33;1.05;;;;;;;;;;5071414;28;20291;-61
2022/05/30 07:28:44;;;;;;;0.85;0.85;;;;;;;;;;5071202;28;20210;-61
2022/05/30 07:31:31;;;;;;;1.10;1.00;;;;;;;;;;5071613;28;20333;-61
2022/05/30 07:34:18;;;;;;;0.80;0.80;;;;;;;;;;5068208;28;20227;-62
2022/05/30 07:37:06;;;;;;;0.93;0.93;;;;;;;;;;5068730;28;20260;-61
2022/05/30 07:39:54;;;;;;;1.20;1.10;;;;;;;;;;5070766;28;20238;-62
2022/05/30 07:42:42;;;;;;;1.40;1.00;;;;;;;;;;5069990;28;20290;-62
2022/05/30 07:45:29;;;;;;;0.98;0.98;;;;;;;;;;5068071;28;20208;-62
2022/05/30 07:48:15;;;;;;;1.10;1.00;;;;;;;;;;5070042;28;20675;-62
2022/05/30 07:51:04;;;;;;;0.80;0.80;;;;;;;;;;5071226;28;20306;-59
2022/05/30 07:53:50;;;;;;;1.00;1.00;;;;;;;;;;5069678;28;20310;-60
2022/05/30 07:56:39;;;;;;;0.93;0.93;;;;;;;;;;5068005;28;20281;-63
2022/05/30 07:59:27;;;;;;;1.02;1.02;;;;;;;;;;5069745;28;20211;-62
2022/05/30 08:02:14;;;;;;;1.10;1.10;;;;;;;;;;5069766;28;20381;-62
2022/05/30 08:05:01;;;;;;;1.23;1.13;;;;;;;;;;5068868;28;20654;-62
2022/05/30 08:07:48;;;;;;;0.95;0.95;;;;;;;;;;5070216;28;20311;-78
2022/05/30 08:10:35;;;;;;;0.98;0.98;;;;;;;;;;5070762;28;20296;-63
2022/05/30 08:13:23;;;;;;;1.00;0.90;;;;;;;;;;5071714;28;20265;-63
2022/05/30 08:16:10;;;;;;;0.95;0.95;;;;;;;;;;5070053;28;20330;-62
2022/05/30 08:18:57;;;;;;;1.35;1.08;;;;;;;;;;5068254;28;20341;-63
2022/05/30 08:21:44;;;;;;;1.00;0.90;;;;;;;;;;5067584;28;20207;-62
2022/05/30 08:24:35;;;;;;;1.00;1.00;;;;;;;;;;5067129;28;20663;-61
2022/05/30 08:27:22;;;;;;;1.23;1.00;;;;;;;;;;5068063;28;20260;-62
2022/05/30 08:30:13;;;;;;;1.02;1.02;;;;;;;;;;5067400;28;20219;-61
2022/05/30 08:33:00;;;;;;;1.35;1.17;;;;;;;;;;5070835;28;20687;-63
2022/05/30 08:35:48;;;;;;;1.00;1.00;;;;;;;;;;5072452;28;20687;-62
2022/05/30 08:38:37;;;;;;;0.93;0.90;;;;;;;;;;5071650;28;20342;-63
2022/05/30 08:44:29;;;;;;;1.30;1.20;;;;;;;;;;5068764;28;20744;-62
2022/05/30 08:47:33;;;;;;;1.13;1.13;;;;;;;;;;5071296;28;20330;-63
2022/05/30 08:50:42;;;;;;;1.20;1.10;;;;;;;;;;5069046;28;20344;-62
2022/05/30 08:53:54;;;;;;;1.10;1.10;;;;;;;;;;5066578;28;20224;-62
2022/05/30 08:56:44;;;;;;;1.10;1.00;;;;;;;;;;5066381;28;20328;-61
2022/05/30 08:59:46;;;;;;;1.10;1.10;;;;;;;;;;5068774;28;20273;-62
2022/05/30 09:02:39;;;;;;;1.13;1.03;;;;;;;;;;5064984;28;20284;-63
2022/05/30 09:05:29;;;;;;;1.50;1.20;;;;;;;;;;5066768;28;20678;-62
2022/05/30 09:08:25;;;;;;;1.07;1.07;;;;;;;;;;5067045;28;20249;-62
2022/05/30 09:11:23;;;;;;;1.33;1.23;;;;;;;;;;5068516;28;20303;-62
2022/05/30 09:14:22;;;;;;;1.47;1.30;;;;;;;;;;5067817;28;20289;-62
2022/05/30 09:17:14;;;;;;;1.23;1.23;;;;;;;;;;5070958;28;20207;-62
2022/05/30 09:20:05;;;;;;;1.00;1.00;;;;;;;;;;5067544;28;20631;-62
2022/05/30 09:22:53;;;;;;;1.20;1.20;;;;;;;;;;5068433;28;20266;-64
2022/05/30 09:26:01;;;;;;;1.07;1.07;;;;;;;;;;5070625;28;20693;-63
2022/05/30 09:28:50;;;;;;;1.20;1.20;;;;;;;;;;5067823;28;20216;-63
2022/05/30 09:31:47;;;;;;;1.10;1.10;;;;;;;;;;5066870;28;20371;-63
2022/05/30 09:34:39;;;;;;;1.07;1.07;;;;;;;;;;5067536;28;20208;-62
2022/05/30 09:37:30;;;;;;;1.13;1.13;;;;;;;;;;5068915;28;20265;-62
2022/05/30 09:40:20;;;;;;;1.97;1.20;;;;;;;;;;5067876;28;20206;-62
2022/05/30 09:43:07;;;;;;;1.40;1.30;;;;;;;;;;5063567;28;20241;-62
2022/05/30 09:45:55;;;;;;;1.40;1.30;;;;;;;;;;5068705;28;20212;-61
2022/05/30 09:48:59;;;;;;;1.20;1.10;;;;;;;;;;5067896;28;20205;-62
2022/05/30 09:51:48;;;;;;;1.20;1.20;;;;;;;;;;5068122;28;20270;-62
2022/05/30 09:54:38;;;;;;;1.00;1.00;;;;;;;;;;5065641;28;20256;-62
2022/05/30 09:57:29;;;;;;;1.30;1.20;;;;;;;;;;5065809;28;20213;-62
2022/05/30 10:00:21;;;;;;;1.53;1.40;;;;;;;;;;5065142;28;20245;-62
2022/05/30 10:03:13;;;;;;;1.17;1.10;;;;;;;;;;5066331;28;20667;-62
2022/05/30 10:06:15;;;;;;;0.90;0.90;;;;;;;;;;5063195;28;20697;-61
2022/05/30 10:09:10;;;;;;;1.00;1.00;;;;;;;;;;5066932;28;20525;-62
2022/05/30 10:11:59;;;;;;;1.40;1.30;;;;;;;;;;5068207;28;20320;-62
2022/05/30 10:14:46;;;;;;;0.87;0.87;;;;;;;;;;5069283;28;20337;-62
2022/05/30 10:17:35;;;;;;;1.30;1.20;;;;;;;;;;5067824;28;20666;-62
2022/05/30 10:20:26;;;;;;;1.00;1.00;;;;;;;;;;5066146;28;20205;-62
2022/05/30 10:29:52;;;;;;;0.83;0.83;;;;;;;;;;5067853;28;20276;-62
2022/05/30 10:32:47;;;;;;;0.97;0.97;;;;;;;;;;5066788;28;20248;-62
2022/05/30 10:35:40;;;;;;;1.07;0.97;;;;;;;;;;5064517;28;20213;-62
2022/05/30 10:38:47;;;;;;;0.90;0.90;;;;;;;;;;5067059;28;20314;-63
2022/05/30 10:41:43;;;;;;;1.00;0.90;;;;;;;;;;5066611;28;20235;-62
2022/05/30 10:44:33;;;;;;;0.93;0.93;;;;;;;;;;5066925;28;20693;-62
2022/05/30 10:47:28;;;;;;;1.10;0.97;;;;;;;;;;5067945;28;20506;-62
2022/05/30 10:50:22;;;;;;;1.00;1.00;;;;;;;;;;5071711;28;20221;-62
2022/05/30 10:53:12;;;;;;;1.10;1.00;;;;;;;;;;5071316;28;20292;-63
2022/05/30 10:56:07;;;;;;;0.80;0.80;;;;;;;;;;5069110;28;20287;-68
2022/05/30 10:59:03;;;;;;;2.00;1.20;;;;;;;;;;5070735;28;20231;-62
2022/05/30 11:01:55;;;;;;;1.23;1.23;;;;;;;;;;5071535;28;20207;-62
2022/05/30 11:04:49;;;;;;;0.93;0.93;;;;;;;;;;5071454;28;20735;-63
2022/05/30 11:07:45;;;;;;;0.90;0.90;;;;;;;;;;5069808;28;20249;-63
2022/05/30 11:10:41;;;;;;;1.20;1.20;;;;;;;;;;5067553;28;20290;-63
2022/05/30 11:13:37;;;;;;;1.20;1.00;;;;;;;;;;5069734;28;20408;-63
2022/05/30 11:16:34;;;;;;;1.00;1.00;;;;;;;;;;5071302;28;20215;-63
2022/05/30 11:19:29;;;;;;;1.10;1.10;;;;;;;;;;5072873;28;20294;-63
2022/05/30 11:22:21;;;;;;;1.23;1.13;;;;;;;;;;5070154;28;20279;-62
2022/05/30 11:25:13;;;;;;;0.90;0.90;;;;;;;;;;5067907;28;20242;-62
2022/05/30 11:28:09;;;;;;;1.10;1.10;;;;;;;;;;5070587;28;20216;-62
2022/05/30 11:31:01;;;;;;;1.33;1.23;;;;;;;;;;5070485;28;20211;-62
2022/05/30 11:33:59;;;;;;;1.07;1.00;;;;;;;;;;5069006;28;20290;-63
2022/05/30 11:36:56;;;;;;;1.27;1.10;;;;;;;;;;5070721;28;20217;-63
2022/05/30 11:39:59;;;;;;;1.13;1.00;;;;;;;;;;5068011;28;20285;-63
2022/05/30 11:42:57;;;;;;;1.00;0.90;;;;;;;;;;5071704;28;20674;-62
2022/05/30 11:45:54;;;;;;;0.90;0.90;;;;;;;;;;5069744;28;20215;-62
2022/05/30 11:48:52;;;;;;;0.93;0.90;;;;;;;;;;5070311;28;20207;-63
2022/05/30 11:51:49;;;;;;;1.13;1.03;;;;;;;;;;5072533;28;20677;-62
2022/05/30 11:54:57;;;;;;;1.33;0.90;;;;;;;;;;5071447;28;20219;-61
2022/05/30 11:57:48;;;;;;;0.83;0.83;;;;;;;;;;5074996;28;20282;-63
2022/05/30 12:00:38;;;;;;;1.00;0.90;;;;;;;;;;5074813;28;20637;-63
2022/05/30 12:04:08;;;;;;;1.20;1.20;;;;;;;;;;5073445;28;20278;-63
2022/05/30 12:07:33;;;;;;;1.00;1.00;;;;;;;;;;5072224;28;20256;-62
2022/05/30 12:10:31;;;;;;;1.00;1.00;;;;;;;;;;5069650;28;20289;-62
2022/05/30 12:13:39;;;;;;;1.10;0.97;;;;;;;;;;5067026;28;20276;-62
2022/05/30 12:16:42;;;;;;;1.00;1.00;;;;;;;;;;5075708;28;20288;-62
2022/05/30 12:25:55;;;;;;;0.90;0.90;;;;;;;;;;5076934;28;20269;-62
2022/05/30 12:28:54;;;;;;;1.10;1.00;;;;;;;;;;5076428;28;20356;-63
2022/05/30 12:31:41;;;;;;;1.03;1.00;;;;;;;;;;5073925;28;20579;-62
2022/05/30 12:35:05;;;;;;;0.90;0.80;;;;;;;;;;5071975;28;20256;-63
2022/05/30 12:38:06;;;;;;;0.90;0.80;;;;;;;;;;5069446;28;20212;-63
2022/05/30 12:41:20;;;;;;;0.70;0.70;;;;;;;;;;5072264;28;20801;-63
2022/05/30 12:44:23;;;;;;;0.77;0.77;;;;;;;;;;5067560;28;20645;-62
2022/05/30 12:47:18;;;;;;;1.43;0.70;;;;;;;;;;5067895;28;20320;-62
2022/05/30 12:50:36;;;;;;;0.77;0.77;;;;;;;;;;5068375;28;20217;-62
2022/05/30 12:53:26;;;;;;;0.57;0.57;;;;;;;;;;5066086;28;20770;-61
2022/05/30 12:56:36;;;;;;;0.60;0.60;;;;;;;;;;5066238;28;20271;-62
2022/05/30 13:15:55;;;;;;;0.80;0.80;;;;;;;;;;5009802;28;20263;-61
2022/05/30 13:18:43;;;;;;;0.80;0.80;;;;;;;;;;5013782;28;20206;-61
2022/05/30 13:21:31;;;;;;;0.77;0.77;;;;;;;;;;5016793;28;20757;-61
2022/05/30 13:24:30;;;;;;;1.63;0.87;;;;;;;;;;5018648;28;20290;-60
2022/05/30 13:27:17;;;;;;;0.90;0.90;;;;;;;;;;5031806;28;20211;-61
2022/05/30 13:30:09;;;;;;;1.00;1.00;;;;;;;;;;5015154;28;20284;-61
2022/05/30 13:32:56;;;;;;;0.80;0.80;;;;;;;;;;5012422;28;20210;-60
2022/05/30 13:35:45;;;;;;;0.83;0.83;;;;;;;;;;5017200;28;20270;-61
2022/05/30 13:38:38;;;;;;;1.23;0.97;;;;;;;;;;5023515;28;20620;-61
2022/05/30 13:41:28;;;;;;;0.80;0.80;;;;;;;;;;5019253;28;20327;-61
2022/05/30 13:44:17;;;;;;;0.80;0.80;;;;;;;;;;5016056;28;20291;-61
2022/05/30 13:47:07;;;;;;;0.83;0.80;;;;;;;;;;5013840;28;20289;-61
2022/05/30 13:49:56;;;;;;;0.80;0.80;;;;;;;;;;5023735;28;20318;-61
2022/05/30 13:52:44;;;;;;;0.70;0.70;;;;;;;;;;5019408;28;20215;-61
2022/05/30 13:55:31;;;;;;;1.03;1.03;;;;;;;;;;5013000;28;20214;-62
2022/05/30 13:58:19;;;;;;;0.70;0.70;;;;;;;;;;5019028;28;20581;-62
2022/05/30 14:01:11;;;;;;;0.73;0.73;;;;;;;;;;5014474;28;20263;-61
2022/05/30 14:04:03;;;;;;;0.80;0.80;;;;;;;;;;5014891;28;20246;-62
2022/05/30 14:06:50;;;;;;;0.80;0.80;;;;;;;;;;5013393;28;20210;-61
2022/05/30 14:09:38;;;;;;;0.80;0.70;;;;;;;;;;5014232;28;20292;-61
2022/05/30 14:12:32;;;;;;;1.00;1.00;;;;;;;;;;5006535;28;20359;-62
2022/05/30 14:15:21;;;;;;;0.90;0.90;;;;;;;;;;5004445;28;20226;-61
2022/05/30 14:18:26;;;;;;;0.90;0.90;;;;;;;;;;4996143;28;20293;-61
2022/05/30 14:21:24;;;;;;;1.07;0.93;;;;;;;;;;4999162;28;20230;-61
2022/05/30 14:24:25;;;;;;;1.00;0.90;;;;;;;;;;5006375;28;20333;-62
2022/05/30 14:27:18;;;;;;;0.80;0.80;;;;;;;;;;4994043;28;20270;-61
2022/05/30 14:30:08;;;;;;;0.93;0.93;;;;;;;;;;5001154;28;20202;-62
2022/05/30 14:33:08;;;;;;;0.80;0.80;;;;;;;;;;5000514;28;20238;-62
2022/05/30 14:36:25;;;;;;;1.10;1.10;;;;;;;;;;5002370;28;20281;-62
2022/05/30 14:39:20;;;;;;;0.90;0.90;;;;;;;;;;4996526;28;20218;-62
2022/05/30 14:42:19;;;;;;;0.80;0.80;;;;;;;;;;5004030;28;20237;-61
2022/05/30 14:45:11;;;;;;;1.00;1.00;;;;;;;;;;5004654;28;20209;-62
2022/05/30 14:48:02;;;;;;;0.90;0.90;;;;;;;;;;4999362;28;20207;-66
2022/05/30 14:50:51;;;;;;;1.20;1.20;;;;;;;;;;5003565;28;20242;-62
2022/05/30 14:53:41;;;;;;;0.90;0.90;;;;;;;;;;5000704;28;20213;-62
2022/05/30 14:56:29;;;;;;;1.47;1.23;;;;;;;;;;4997699;28;20319;-61
2022/05/30 14:59:30;;;;;;;1.13;1.13;;;;;;;;;;4999653;28;20246;-61
2022/05/30 15:05:20;;;;;;;0.90;0.90;;;;;;;;;;5001761;28;20277;-62
2022/05/30 15:08:08;;;;;;;1.13;0.87;;;;;;;;;;5001672;28;20294;-61
2022/05/30 15:10:57;;;;;;;0.90;0.90;;;;;;;;;;5001391;28;20328;-62
2022/05/30 15:13:44;;;;;;;1.20;1.20;;;;;;;;;;4999301;28;20262;-62
2022/05/30 15:16:32;;;;;;;0.93;0.90;;;;;;;;;;5001534;28;20203;-62
2022/05/30 15:19:19;;;;;;;0.80;0.80;;;;;;;;;;5003281;28;20298;-62
2022/05/30 15:22:08;;;;;;;1.00;1.00;;;;;;;;;;5000585;28;20302;-61
2022/05/30 15:24:58;;;;;;;0.90;0.90;;;;;;;;;;5000395;28;20238;-61
2022/05/30 15:27:46;;;;;;;0.80;0.80;;;;;;;;;;5005170;28;20244;-61
2022/05/30 15:30:33;;;;;;;0.90;0.90;;;;;;;;;;5006336;28;20238;-61
2022/05/30 15:33:20;;;;;;;1.00;1.00;;;;;;;;;;5001625;28;20298;-61
2022/05/30 15:36:07;;;;;;;0.90;0.90;;;;;;;;;;5000941;28;20244;-66
2022/05/30 15:38:56;;;;;;;0.97;0.97;;;;;;;;;;5002340;28;20243;-62
2022/05/30 15:41:49;;;;;;;0.80;0.80;;;;;;;;;;5002338;28;20253;-62
2022/05/30 15:44:40;;;;;;;1.17;1.07;;;;;;;;;;5003515;28;20237;-62
2022/05/30 15:47:27;;;;;;;0.80;0.80;;;;;;;;;;5000378;28;20208;-62
2022/05/30 15:50:14;;;;;;;1.50;1.00;;;;;;;;;;4999201;28;20213;-61
2022/05/30 15:59:15;;;;;;;0.90;0.90;;;;;;;;;;5001605;28;20211;-62
2022/05/30 16:02:04;;;;;;;1.30;1.20;;;;;;;;;;5000782;28;20245;-63
2022/05/30 16:04:51;;;;;;;1.00;1.00;;;;;;;;;;4997265;28;20288;-61
2022/05/30 16:07:39;;;;;;;1.30;1.30;;;;;;;;;;5004481;28;20201;-61
2022/05/30 16:10:26;;;;;;;1.00;1.00;;;;;;;;;;5002889;28;20732;-61
2022/05/30 16:13:16;;;;;;;1.20;1.20;;;;;;;;;;5007315;28;20541;-61
2022/05/30 16:16:05;;;;;;;1.27;1.27;;;;;;;;;;5001213;28;20248;-62
2022/05/30 16:18:53;;;;;;;1.00;1.00;;;;;;;;;;4998620;28;20203;-60
2022/05/30 16:21:42;;;;;;;1.13;1.03;;;;;;;;;;5000964;28;20311;-61
2022/05/30 16:24:30;;;;;;;1.50;1.40;;;;;;;;;;5003223;28;20300;-61
2022/05/30 16:27:17;;;;;;;1.43;0.93;;;;;;;;;;4999974;28;20243;-61
2022/05/30 16:30:05;;;;;;;1.23;1.13;;;;;;;;;;5003963;28;20687;-61
2022/05/30 16:32:52;;;;;;;1.07;1.00;;;;;;;;;;5005523;28;20248;-61
2022/05/30 16:35:41;;;;;;;0.90;0.90;;;;;;;;;;4997083;28;20350;-61
2022/05/30 16:38:28;;;;;;;0.90;0.90;;;;;;;;;;5005270;28;20292;-61
2022/05/30 16:41:16;;;;;;;0.93;0.90;;;;;;;;;;4993791;28;20336;-61
2022/05/30 16:44:03;;;;;;;0.93;0.93;;;;;;;;;;5002860;28;20214;-62
2022/05/30 16:46:51;;;;;;;1.30;1.20;;;;;;;;;;5004083;28;20801;-61
2022/05/30 16:49:39;;;;;;;0.90;0.90;;;;;;;;;;4999876;28;20276;-61
2022/05/30 16:52:29;;;;;;;0.93;0.93;;;;;;;;;;4997313;28;20874;-61
2022/05/30 16:55:17;;;;;;;0.80;0.80;;;;;;;;;;4997001;28;20292;-61
2022/05/30 16:58:05;;;;;;;0.80;0.80;;;;;;;;;;4999014;28;20271;-61
2022/05/30 17:00:53;;;;;;;1.10;1.10;;;;;;;;;;4999939;28;20392;-61
2022/05/30 17:03:40;;;;;;;0.80;0.80;;;;;;;;;;5001163;28;20215;-61
2022/05/30 17:06:27;;;;;;;0.90;0.90;;;;;;;;;;5000446;28;20294;-61
2022/05/30 17:09:19;;;;;;;1.13;1.13;;;;;;;;;;4997534;28;20210;-61
2022/05/30 17:12:06;;;;;;;1.00;1.00;;;;;;;;;;4999683;28;20283;-61
2022/05/30 17:14:53;;;;;;;0.70;0.70;;;;;;;;;;5002910;28;20928;-61
2022/05/30 17:17:41;;;;;;;0.80;0.80;;;;;;;;;;5000717;28;20371;-61
2022/05/30 17:20:30;;;;;;;1.07;1.07;;;;;;;;;;5004250;28;20210;-62
2022/05/30 17:23:18;;;;;;;0.87;0.87;;;;;;;;;;4999329;28;20295;-61
2022/05/30 17:26:06;;;;;;;0.77;0.77;;;;;;;;;;5004779;28;20218;-62
2022/05/30 17:29:09;;;;;;;1.03;0.80;;;;;;;;;;5000598;28;20296;-61
2022/05/30 17:31:59;;;;;;;0.90;0.90;;;;;;;;;;5000633;28;20284;-62
2022/05/30 17:34:46;;;;;;;0.90;0.90;;;;;;;;;;4999731;28;20557;-62
2022/05/30 17:37:33;;;;;;;0.87;0.87;;;;;;;;;;5000966;28;20250;-62
2022/05/30 17:40:20;;;;;;;0.80;0.80;;;;;;;;;;4998108;28;20215;-61
2022/05/30 17:43:10;;;;;;;1.07;1.07;;;;;;;;;;4997787;28;20293;-61
2022/05/30 17:46:12;;;;;;;1.40;1.07;;;;;;;;;;5003701;28;20650;-62
2022/05/30 17:49:08;;;;;;;1.03;0.97;;;;;;;;;;5006879;28;20236;-62
2022/05/30 17:52:01;;;;;;;1.03;1.03;;;;;;;;;;5010779;28;20229;-61
2022/05/30 17:54:49;;;;;;;0.80;0.80;;;;;;;;;;5002457;28;20237;-62